createdAt,value
2017-11-27T00:01:07.459Z,99885.66
2017-11-27T00:03:41.958Z,99880.09
2017-11-27T00:06:16.319Z,99886.31
2017-11-27T00:08:50.716Z,99880.09
2017-11-27T00:11:25.099Z,99778.73
2017-11-27T00:13:59.559Z,99881.21
2017-11-27T00:16:33.939Z,99860.30
2017-11-27T00:19:09.551Z,99875.63
2017-11-27T00:21:43.885Z,99892.23
2017-11-27T00:24:18.484Z,99887.44
2017-11-27T00:26:53.251Z,99880.79
2017-11-27T00:29:27.783Z,99881.41
2017-11-27T00:32:02.204Z,99876.47
2017-11-27T00:34:36.607Z,99888.22
2017-11-27T00:37:11.033Z,99883.52
2017-11-27T00:39:45.819Z,99890.55
2017-11-27T00:42:20.236Z,99886.96
2017-11-27T00:44:54.676Z,99886.23
2017-11-27T00:47:29.098Z,99878.91
2017-11-27T00:50:04.228Z,99899.72
2017-11-27T00:52:40.721Z,99902.04
2017-11-27T00:55:15.295Z,99914.72
2017-11-27T00:57:50.724Z,99902.97
2017-11-27T01:00:25.177Z,99891.84
2017-11-27T01:03:00.393Z,99852.61
2017-11-27T01:05:34.794Z,99902.68
2017-11-27T01:08:09.312Z,99898.96
2017-11-27T01:10:43.718Z,99883.41
2017-11-27T01:13:18.301Z,99905.09
2017-11-27T01:15:52.808Z,99910.52
2017-11-27T01:18:27.625Z,99907.56
2017-11-27T01:21:02.053Z,99910.73
2017-11-27T01:23:36.698Z,99915.31
2017-11-27T01:26:11.111Z,99916.45
2017-11-27T01:28:45.644Z,99906.73
2017-11-27T01:31:20.024Z,99879.52
2017-11-27T01:33:55.316Z,99900.77
2017-11-27T01:36:29.698Z,99897.41
2017-11-27T01:39:03.494Z,99885.05
2017-11-27T01:41:37.985Z,99893.20
2017-11-27T01:44:12.456Z,99892.09
2017-11-27T01:46:46.912Z,99887.89
2017-11-27T01:49:22.227Z,99884.92
2017-11-27T01:51:56.747Z,99870.98
2017-11-27T01:54:31.731Z,99883.72
2017-11-27T01:57:06.095Z,99883.94
2017-11-27T01:59:40.767Z,99870.27
2017-11-27T02:02:15.463Z,99870.35
2017-11-27T02:04:49.818Z,99869.58
2017-11-27T02:07:24.272Z,99874.06
2017-11-27T02:09:58.484Z,99865.45
2017-11-27T02:12:32.827Z,99854.96
2017-11-27T02:15:13.416Z,99858.75
2017-11-27T02:17:48.013Z,99847.93
2017-11-27T02:20:22.424Z,99864.28
2017-11-27T02:22:56.519Z,99875.58
2017-11-27T02:25:30.713Z,99866.61
2017-11-27T02:28:04.734Z,99876.41
2017-11-27T02:30:39.103Z,99862.76
2017-11-27T02:33:13.671Z,99872.94
2017-11-27T02:35:48.294Z,99881.95
2017-11-27T02:38:24.205Z,99878.15
2017-11-27T02:40:58.652Z,99887.77
2017-11-27T02:43:33.291Z,99886.84
2017-11-27T02:46:07.684Z,99883.20
2017-11-27T02:48:42.312Z,99898.89
2017-11-27T02:51:16.719Z,99897.53
2017-11-27T02:53:51.109Z,99904.10
2017-11-27T02:56:25.485Z,99910.92
2017-11-27T02:59:00.582Z,99912.76
2017-11-27T03:01:35.263Z,99909.67
2017-11-27T03:04:09.800Z,99914.80
2017-11-27T03:06:44.247Z,99912.55
2017-11-27T03:09:18.872Z,99904.03
2017-11-27T03:11:53.259Z,99917.46
2017-11-27T03:14:27.773Z,99918.88
2017-11-27T03:17:02.224Z,99912.58
2017-11-27T03:19:36.747Z,99887.52
2017-11-27T03:22:11.124Z,99917.98
2017-11-27T03:24:45.617Z,99919.95
2017-11-27T03:27:20.004Z,99913.91
2017-11-27T03:29:54.417Z,99916.87
2017-11-27T03:32:28.759Z,99922.69
2017-11-27T03:35:04.410Z,99919.21
2017-11-27T03:37:38.950Z,99916.75
2017-11-27T03:40:13.393Z,99924.63
2017-11-27T03:42:47.935Z,99913.18
2017-11-27T03:45:22.739Z,99921.69
2017-11-27T03:47:57.393Z,99917.29
2017-11-27T03:50:31.949Z,99917.89
2017-11-27T03:53:06.458Z,99908.28
2017-11-27T03:55:40.829Z,99913.80
2017-11-27T03:58:15.271Z,99913.67
2017-11-27T04:00:49.679Z,99911.33
2017-11-27T04:03:24.207Z,99914.80
2017-11-27T04:05:58.560Z,99915.91
2017-11-27T04:08:33.128Z,99918.27
2017-11-27T04:11:07.480Z,99908.89
2017-11-27T04:13:42.080Z,99917.04
2017-11-27T04:16:16.548Z,99920.42
2017-11-27T04:18:51.611Z,99908.07
2017-11-27T04:21:26.183Z,99918.27
2017-11-27T04:24:00.738Z,99911.66
2017-11-27T04:26:35.174Z,99915.70
2017-11-27T04:29:09.691Z,99923.98
2017-11-27T04:31:43.730Z,99917.95
2017-11-27T04:34:18.152Z,99927.33
2017-11-27T04:36:52.257Z,99932.05
2017-11-27T04:39:27.031Z,99921.12
2017-11-27T04:42:01.449Z,99933.88
2017-11-27T04:44:36.808Z,99935.72
2017-11-27T04:47:11.366Z,99932.97
2017-11-27T04:49:45.879Z,99934.20
2017-11-27T04:52:20.343Z,99945.01
2017-11-27T04:54:54.723Z,99940.20
2017-11-27T04:57:29.119Z,99955.34
2017-11-27T05:02:43.073Z,99968.20
2017-11-27T05:05:17.302Z,99967.98
2017-11-27T05:07:51.836Z,99952.89
2017-11-27T05:10:27.025Z,99955.20
2017-11-27T05:13:01.267Z,99946.55
2017-11-27T05:15:35.771Z,99953.70
2017-11-27T05:18:10.097Z,99953.59
2017-11-27T05:20:44.560Z,99954.20
2017-11-27T05:23:19.083Z,99952.96
2017-11-27T05:25:53.451Z,99953.06
2017-11-27T05:28:28.048Z,99957.77
2017-11-27T05:31:02.557Z,99962.16
2017-11-27T05:33:36.998Z,99964.16
2017-11-27T05:36:11.477Z,99968.27
2017-11-27T05:38:45.987Z,99966.73
2017-11-27T05:41:20.379Z,99963.66
2017-11-27T05:43:54.741Z,99961.22
2017-11-27T05:46:29.470Z,99960.18
2017-11-27T05:49:03.988Z,99962.45
2017-11-27T05:51:38.392Z,99956.52
2017-11-27T05:54:12.972Z,99957.43
2017-11-27T05:56:48.095Z,99961.22
2017-11-27T05:59:22.855Z,99963.56
2017-11-27T06:01:57.234Z,99956.23
2017-11-27T06:04:31.855Z,99960.38
2017-11-27T06:07:06.384Z,99968.63
2017-11-27T06:09:40.890Z,99978.95
2017-11-27T06:12:15.356Z,99977.30
2017-11-27T06:14:49.927Z,99983.95
2017-11-27T06:17:24.326Z,99984.02
2017-11-27T06:19:58.911Z,99982.50
2017-11-27T06:22:33.520Z,99994.03
2017-11-27T06:25:09.002Z,99994.30
2017-11-27T06:27:43.581Z,99997.58
2017-11-27T06:30:18.001Z,99994.62
2017-11-27T06:32:52.483Z,99993.20
2017-11-27T06:35:26.866Z,99990.53
2017-11-27T06:38:01.355Z,99977.45
2017-11-27T06:40:35.814Z,99990.11
2017-11-27T06:43:10.303Z,99987.96
2017-11-27T06:45:44.756Z,99981.01
2017-11-27T06:48:19.200Z,99997.16
2017-11-27T06:50:54.268Z,99983.27
2017-11-27T06:53:28.887Z,99994.59
2017-11-27T06:56:03.471Z,99991.22
2017-11-27T06:58:37.963Z,99998.69
2017-11-27T07:01:12.756Z,100001.84
2017-11-27T07:03:47.023Z,99999.81
2017-11-27T07:06:21.367Z,100007.46
2017-11-27T07:08:55.938Z,100003.47
2017-11-27T07:11:31.394Z,100001.30
2017-11-27T07:14:05.817Z,100009.75
2017-11-27T07:16:40.618Z,100003.76
2017-11-27T07:19:15.148Z,100009.44
2017-11-27T07:21:49.906Z,100008.50
2017-11-27T07:24:24.592Z,100009.41
2017-11-27T07:26:58.983Z,99998.58
2017-11-27T07:29:33.484Z,100007.05
2017-11-27T07:32:08.508Z,100009.84
2017-11-27T07:34:43.623Z,99999.23
2017-11-27T07:37:23.744Z,99994.00
2017-11-27T07:39:58.087Z,100000.55
2017-11-27T07:42:32.570Z,100000.13
2017-11-27T07:45:09.731Z,99999.31
2017-11-27T07:47:44.309Z,99994.52
2017-11-27T07:50:18.688Z,99999.09
2017-11-27T07:52:53.515Z,99993.26
2017-11-27T07:55:27.739Z,99995.17
2017-11-27T07:58:02.259Z,99984.77
2017-11-27T08:00:36.709Z,99992.42
2017-11-27T08:03:10.867Z,100001.35
2017-11-27T08:05:49.280Z,100004.75
2017-11-27T08:08:23.856Z,100006.45
2017-11-27T08:10:58.323Z,100003.03
2017-11-27T08:13:32.880Z,100002.70
2017-11-27T08:16:07.236Z,99997.80
2017-11-27T08:18:41.743Z,100006.75
2017-11-27T08:21:16.127Z,100004.68
2017-11-27T08:23:50.711Z,100004.14
2017-11-27T08:26:25.491Z,100000.55
2017-11-27T08:28:59.986Z,100021.17
2017-11-27T08:31:34.495Z,100018.53
2017-11-27T08:34:09.045Z,100003.59
2017-11-27T08:36:43.564Z,100023.44
2017-11-27T08:39:18.016Z,100014.73
2017-11-27T08:41:52.395Z,100005.42
2017-11-27T08:44:26.971Z,100021.09
2017-11-27T08:47:01.409Z,100013.34
2017-11-27T08:49:35.900Z,100023.50
2017-11-27T08:52:10.369Z,100013.88
2017-11-27T08:54:44.245Z,100015.08
2017-11-27T08:57:18.358Z,99994.55
2017-11-27T08:59:52.857Z,100009.80
2017-11-27T09:02:27.295Z,100003.87
2017-11-27T09:05:01.656Z,100009.97
2017-11-27T09:07:36.431Z,100014.00
2017-11-27T09:10:11.798Z,100009.13
2017-11-27T09:12:46.356Z,100017.31
2017-11-27T09:15:20.788Z,100010.89
2017-11-27T09:17:55.351Z,100011.17
2017-11-27T09:20:29.757Z,99997.72
2017-11-27T09:23:04.320Z,99984.64
2017-11-27T09:25:39.105Z,99990.51
2017-11-27T09:28:12.974Z,99994.44
2017-11-27T09:30:47.842Z,99981.30
2017-11-27T09:33:22.623Z,99990.20
2017-11-27T09:35:56.634Z,100004.14
2017-11-27T09:38:31.226Z,99994.09
2017-11-27T09:41:05.999Z,99997.95
2017-11-27T09:43:40.269Z,100003.91
2017-11-27T09:46:14.774Z,100012.42
2017-11-27T09:48:49.379Z,99994.43
2017-11-27T09:51:24.171Z,99991.77
2017-11-27T09:53:58.336Z,99990.25
2017-11-27T09:56:32.707Z,99990.42
2017-11-27T09:59:07.082Z,99973.20
2017-11-27T10:01:41.170Z,99975.88
2017-11-27T10:04:15.708Z,99979.88
2017-11-27T10:06:50.080Z,99980.66
2017-11-27T10:09:24.567Z,99967.04
2017-11-27T10:11:58.963Z,99966.64
2017-11-27T10:14:34.022Z,99962.88
2017-11-27T10:17:09.636Z,99969.28
2017-11-27T10:19:44.190Z,99955.61
2017-11-27T10:22:18.730Z,99957.31
2017-11-27T10:24:53.231Z,99964.70
2017-11-27T10:27:27.647Z,99962.71
2017-11-27T10:30:02.740Z,99957.47
2017-11-27T10:32:38.384Z,99956.47
2017-11-27T10:35:12.756Z,99946.34
2017-11-27T10:37:47.144Z,99933.90
2017-11-27T10:40:21.616Z,99960.75
2017-11-27T10:42:55.743Z,99947.62
2017-11-27T10:45:30.177Z,99939.86
2017-11-27T10:48:04.442Z,99935.56
2017-11-27T10:50:38.914Z,99935.67
2017-11-27T10:53:13.542Z,99933.66
2017-11-27T10:55:47.980Z,99929.66
2017-11-27T10:58:23.320Z,99926.69
2017-11-27T11:01:03.300Z,99927.23
2017-11-27T11:03:37.400Z,99932.52
2017-11-27T11:06:11.828Z,99931.00
2017-11-27T11:08:46.260Z,99928.42
2017-11-27T11:11:20.607Z,99934.57
2017-11-27T11:13:55.947Z,99927.92
2017-11-27T11:16:30.075Z,99915.02
2017-11-27T11:19:04.515Z,99924.22
2017-11-27T11:21:39.250Z,99915.88
2017-11-27T11:24:13.768Z,99927.34
2017-11-27T11:26:47.648Z,99921.91
2017-11-27T11:29:22.137Z,99920.05
2017-11-27T11:31:56.546Z,99920.27
2017-11-27T11:34:30.780Z,99923.45
2017-11-27T11:37:05.271Z,99922.23
2017-11-27T11:39:39.835Z,99911.44
2017-11-27T11:42:14.262Z,99902.22
2017-11-27T11:44:48.513Z,99898.97
2017-11-27T11:47:22.921Z,99891.50
2017-11-27T11:49:57.469Z,99889.31
2017-11-27T11:52:31.847Z,99883.85
2017-11-27T11:55:09.405Z,99880.69
2017-11-27T11:57:43.631Z,99865.25
2017-11-27T12:00:17.703Z,99876.05
2017-11-27T12:02:52.068Z,99879.30
2017-11-27T12:05:26.483Z,99878.10
2017-11-27T12:08:00.858Z,99866.08
2017-11-27T12:10:35.290Z,99870.61
2017-11-27T12:13:09.775Z,99873.45
2017-11-27T12:15:44.242Z,99866.23
2017-11-27T12:18:18.772Z,99869.71
2017-11-27T12:20:53.183Z,99869.42
2017-11-27T12:23:27.649Z,99863.48
2017-11-27T12:26:02.919Z,99863.03
2017-11-27T12:28:36.928Z,99860.34
2017-11-27T12:31:11.236Z,99867.47
2017-11-27T12:33:45.699Z,99866.63
2017-11-27T12:36:20.723Z,99857.51
2017-11-27T12:38:55.098Z,99862.00
2017-11-27T12:41:29.470Z,99858.50
2017-11-27T12:44:04.022Z,99842.38
2017-11-27T12:46:38.458Z,99852.09
2017-11-27T12:49:12.978Z,99851.89
2017-11-27T12:51:47.425Z,99852.94
2017-11-27T12:54:21.937Z,99852.70
2017-11-27T12:56:57.114Z,99852.23
2017-11-27T12:59:31.527Z,99852.00
2017-11-27T13:02:05.571Z,99850.97
2017-11-27T13:04:40.179Z,99850.16
2017-11-27T13:07:14.555Z,99852.70
2017-11-27T13:09:48.979Z,99856.58
2017-11-27T13:12:23.047Z,99849.00
2017-11-27T13:14:57.509Z,99844.29
2017-11-27T13:17:32.024Z,99839.23
2017-11-27T13:20:10.989Z,99781.94
2017-11-27T13:22:46.376Z,99838.20
2017-11-27T13:25:20.961Z,99835.31
2017-11-27T13:27:55.367Z,99831.22
2017-11-27T13:30:29.719Z,99822.85
2017-11-27T13:33:03.995Z,99819.04
2017-11-27T13:35:38.567Z,99816.72
2017-11-27T13:38:13.035Z,99814.27
2017-11-27T13:40:47.467Z,99818.59
2017-11-27T13:43:21.946Z,99821.55
2017-11-27T13:45:56.749Z,99827.86
2017-11-27T13:48:31.329Z,99819.13
2017-11-27T13:51:05.700Z,99826.00
2017-11-27T13:53:40.720Z,99819.52
2017-11-27T13:56:15.467Z,99818.20
2017-11-27T13:58:50.047Z,99818.19
2017-11-27T14:01:24.247Z,99823.08
2017-11-27T14:03:59.690Z,99825.23
2017-11-27T14:06:33.901Z,99808.77
2017-11-27T14:09:08.324Z,99801.28
2017-11-27T14:11:42.725Z,99827.65
2017-11-27T14:14:17.217Z,99820.70
2017-11-27T14:16:51.623Z,99818.09
2017-11-27T14:19:26.004Z,99801.58
2017-11-27T14:22:00.388Z,99812.48
2017-11-27T14:24:34.791Z,99815.02
2017-11-27T14:27:09.043Z,99807.27
2017-11-27T14:29:43.468Z,99801.21
2017-11-27T14:32:17.855Z,99805.00
2017-11-27T14:34:52.396Z,99796.39
2017-11-27T14:37:26.811Z,99800.94
2017-11-27T14:40:00.844Z,99797.66
2017-11-27T14:42:35.243Z,99802.98
2017-11-27T14:45:09.338Z,99797.46
2017-11-27T14:47:43.738Z,99790.80
2017-11-27T14:50:18.131Z,99790.03
2017-11-27T14:52:52.360Z,99794.21
2017-11-27T14:55:27.159Z,99785.89
2017-11-27T14:58:01.672Z,99794.74
2017-11-27T15:00:36.316Z,99784.61
2017-11-27T15:03:10.664Z,99790.11
2017-11-27T15:05:44.707Z,99777.67
2017-11-27T15:08:18.888Z,99780.84
2017-11-27T15:10:53.369Z,99789.75
2017-11-27T15:13:27.655Z,99789.44
2017-11-27T15:16:01.673Z,99763.98
2017-11-27T15:18:36.696Z,99772.06
2017-11-27T15:21:10.967Z,99772.44
2017-11-27T15:23:45.048Z,99770.58
2017-11-27T15:26:19.307Z,99771.52
2017-11-27T15:28:53.860Z,99772.02
2017-11-27T15:31:27.952Z,99764.77
2017-11-27T15:34:02.238Z,99768.50
2017-11-27T15:36:36.303Z,99770.70
2017-11-27T15:39:11.137Z,99769.84
2017-11-27T15:41:45.379Z,99764.34
2017-11-27T15:44:19.272Z,99763.80
2017-11-27T15:46:53.339Z,99763.48
2017-11-27T15:49:27.403Z,99761.17
2017-11-27T15:52:01.604Z,99768.48
2017-11-27T15:54:35.471Z,99758.67
2017-11-27T15:57:09.527Z,99758.73
2017-11-27T15:59:43.940Z,99756.50
2017-11-27T16:02:19.155Z,99754.61
2017-11-27T16:04:53.184Z,99758.52
2017-11-27T16:07:27.295Z,99742.91
2017-11-27T16:10:01.467Z,99754.98
2017-11-27T16:12:35.522Z,99749.97
2017-11-27T16:15:12.360Z,99747.85
2017-11-27T16:17:46.387Z,99746.31
2017-11-27T16:20:22.303Z,99743.97
2017-11-27T16:23:00.016Z,99746.65
2017-11-27T16:25:34.140Z,99744.22
2017-11-27T16:28:13.857Z,99729.44
2017-11-27T16:30:49.282Z,99740.63
2017-11-27T16:33:29.528Z,99737.53
2017-11-27T16:36:04.505Z,99741.06
2017-11-27T16:38:38.692Z,99742.73
2017-11-27T16:41:13.452Z,99690.93
2017-11-27T16:43:48.195Z,99735.56
2017-11-27T16:46:22.509Z,99745.31
2017-11-27T16:48:59.872Z,99734.11
2017-11-27T16:51:35.051Z,99736.16
2017-11-27T16:54:09.248Z,99730.26
2017-11-27T16:56:44.073Z,99732.55
2017-11-27T16:59:18.383Z,99737.93
2017-11-27T17:01:52.760Z,99737.80
2017-11-27T17:04:26.763Z,99736.86
2017-11-27T17:07:02.005Z,99731.42
2017-11-27T17:09:36.909Z,99730.53
2017-11-27T17:12:11.000Z,99730.16
2017-11-27T17:14:45.841Z,99721.59
2017-11-27T17:17:21.786Z,99718.31
2017-11-27T17:19:55.975Z,99645.80
2017-11-27T17:22:30.563Z,99723.00
2017-11-27T17:25:07.138Z,99716.20
2017-11-27T17:27:41.432Z,99725.69
2017-11-27T17:30:21.281Z,99718.22
2017-11-27T17:32:56.826Z,99719.56
2017-11-27T17:35:30.750Z,99713.14
2017-11-27T17:38:04.631Z,99713.80
2017-11-27T17:40:40.357Z,99702.81
2017-11-27T17:43:14.414Z,99706.30
2017-11-27T17:45:48.498Z,99705.33
2017-11-27T17:48:23.733Z,99703.78
2017-11-27T17:50:57.592Z,99704.52
2017-11-27T17:53:31.596Z,99701.47
2017-11-27T17:56:06.834Z,99704.22
2017-11-27T17:58:46.068Z,99701.86
2017-11-27T18:01:20.281Z,99703.67
2017-11-27T18:03:54.436Z,99706.77
2017-11-27T18:06:28.554Z,99704.78
2017-11-27T18:09:02.652Z,99701.16
2017-11-27T18:11:37.356Z,99699.42
2017-11-27T18:14:12.241Z,99701.35
2017-11-27T18:16:47.984Z,99698.36
2017-11-27T18:19:28.368Z,99692.81
2017-11-27T18:22:02.639Z,99685.48
2017-11-27T18:24:37.119Z,99684.08
2017-11-27T18:27:11.151Z,99681.82
2017-11-27T18:29:45.184Z,99685.05
2017-11-27T18:32:19.313Z,99673.91
2017-11-27T18:34:53.624Z,99685.74
2017-11-27T18:37:27.644Z,99687.59
2017-11-27T18:40:01.838Z,99681.53
2017-11-27T18:42:35.982Z,99680.89
2017-11-27T18:45:10.035Z,99676.51
2017-11-27T18:47:44.100Z,99673.42
2017-11-27T18:50:18.107Z,99675.41
2017-11-27T18:52:52.259Z,99666.52
2017-11-27T18:55:26.118Z,99673.38
2017-11-27T18:58:00.528Z,99669.59
2017-11-27T19:00:34.824Z,99673.72
2017-11-27T19:03:09.247Z,99669.72
2017-11-27T19:05:43.355Z,99662.34
2017-11-27T19:08:19.567Z,99669.84
2017-11-27T19:10:54.252Z,99667.49
2017-11-27T19:13:28.411Z,99662.91
2017-11-27T19:16:05.111Z,99670.40
2017-11-27T19:18:43.586Z,99660.61
2017-11-27T19:21:18.096Z,99657.13
2017-11-27T19:23:52.245Z,99653.43
2017-11-27T19:26:26.764Z,99648.19
2017-11-27T19:29:00.879Z,99649.32
2017-11-27T19:31:34.972Z,99639.19
2017-11-27T19:34:10.447Z,99639.48
2017-11-27T19:36:44.601Z,99641.73
2017-11-27T19:39:18.763Z,99640.00
2017-11-27T19:41:53.196Z,99634.20
2017-11-27T19:44:27.717Z,99630.65
2017-11-27T19:47:01.970Z,99628.72
2017-11-27T19:49:36.652Z,99632.44
2017-11-27T19:52:11.611Z,99624.39
2017-11-27T19:54:48.335Z,99628.91
2017-11-27T19:57:22.852Z,99615.82
2017-11-27T19:59:58.263Z,99614.79
2017-11-27T20:02:32.612Z,99553.18
2017-11-27T20:05:07.216Z,99608.21
2017-11-27T20:07:41.579Z,99609.84
2017-11-27T20:10:16.152Z,99603.50
2017-11-27T20:12:50.439Z,99600.12
2017-11-27T20:15:24.513Z,99600.44
2017-11-27T20:17:58.718Z,99605.14
2017-11-27T20:20:32.814Z,99591.05
2017-11-27T20:23:06.936Z,99594.27
2017-11-27T20:25:41.118Z,99580.96
2017-11-27T20:28:15.773Z,99581.72
2017-11-27T20:30:50.200Z,99575.07
2017-11-27T20:33:24.427Z,99573.05
2017-11-27T20:35:59.596Z,99569.58
2017-11-27T20:38:33.868Z,99571.27
2017-11-27T20:41:08.635Z,99568.55
2017-11-27T20:43:43.567Z,99562.97
2017-11-27T20:46:17.796Z,99558.53
2017-11-27T20:48:52.035Z,99553.50
2017-11-27T20:51:26.042Z,99546.96
2017-11-27T20:54:01.239Z,99541.04
2017-11-27T20:56:35.664Z,99537.58
2017-11-27T20:59:09.719Z,99538.93
2017-11-27T21:01:44.242Z,99534.34
2017-11-27T21:04:18.296Z,99538.59
2017-11-27T21:06:52.774Z,99538.95
2017-11-27T21:09:26.936Z,99528.12
2017-11-27T21:12:01.980Z,99527.07
2017-11-27T21:14:36.678Z,99531.53
2017-11-27T21:17:11.988Z,99528.86
2017-11-27T21:19:49.304Z,99484.07
2017-11-27T21:22:23.561Z,99515.85
2017-11-27T21:24:57.759Z,99522.23
2017-11-27T21:27:31.877Z,99518.58
2017-11-27T21:30:09.528Z,99509.53
2017-11-27T21:32:43.859Z,99514.23
2017-11-27T21:35:18.380Z,99505.22
2017-11-27T21:37:52.977Z,99504.42
2017-11-27T21:40:27.418Z,99504.42
2017-11-27T21:43:01.743Z,99492.91
2017-11-27T21:45:36.250Z,99501.45
2017-11-27T21:48:10.682Z,99496.55
2017-11-27T21:50:44.788Z,99495.91
2017-11-27T21:53:18.843Z,99501.72
2017-11-27T21:55:52.947Z,99493.45
2017-11-27T21:58:27.022Z,99496.09
2017-11-27T22:01:01.237Z,99488.61
2017-11-27T22:03:35.803Z,99485.09
2017-11-27T22:06:10.336Z,99489.86
2017-11-27T22:08:44.374Z,99477.72
2017-11-27T22:11:18.467Z,99472.16
2017-11-27T22:13:52.713Z,99481.05
2017-11-27T22:16:27.499Z,99473.40
2017-11-27T22:19:02.240Z,99465.81
2017-11-27T22:21:36.656Z,99461.91
2017-11-27T22:24:10.856Z,99458.63
2017-11-27T22:26:44.972Z,99461.85
2017-11-27T22:29:19.927Z,99454.61
2017-11-27T22:31:54.428Z,99445.50
2017-11-27T22:34:28.486Z,99447.03
2017-11-27T22:37:03.222Z,99433.38
2017-11-27T22:39:37.452Z,99435.89
2017-11-27T22:42:11.836Z,99434.91
2017-11-27T22:44:45.999Z,99426.31
2017-11-27T22:47:20.458Z,99429.27
2017-11-27T22:49:54.675Z,99425.47
2017-11-27T22:52:28.696Z,99427.44
2017-11-27T22:57:42.531Z,99408.13
2017-11-27T23:00:17.055Z,99382.45
2017-11-27T23:02:51.616Z,99398.64
2017-11-27T23:05:25.671Z,99396.12
2017-11-27T23:08:00.171Z,99396.08
2017-11-27T23:10:34.310Z,99382.30
2017-11-27T23:13:08.473Z,99383.65
2017-11-27T23:15:42.682Z,99366.30
2017-11-27T23:18:17.243Z,99372.80
2017-11-27T23:20:51.621Z,99370.02
2017-11-27T23:23:25.925Z,99364.87
2017-11-27T23:26:00.446Z,99370.22
2017-11-27T23:28:34.507Z,99358.41
2017-11-27T23:31:08.968Z,99358.20
2017-11-27T23:33:43.536Z,99351.00
2017-11-27T23:36:17.895Z,99336.69
2017-11-27T23:38:52.527Z,99341.64
2017-11-27T23:41:26.689Z,99341.01
2017-11-27T23:44:01.256Z,99340.69
2017-11-27T23:46:35.529Z,99334.05
2017-11-27T23:49:09.796Z,99344.98
2017-11-27T23:51:43.986Z,99334.39
2017-11-27T23:54:19.634Z,99335.44
2017-11-27T23:56:54.143Z,99325.34
2017-11-27T23:59:28.508Z,99325.55
